sensor_id;sensor_type;location;lat;lon;timestamp;pressure;altitude;pressure_sealevel;temperature;humidity
42111;BME280;27766;52.174;5.456;2022-12-11T00:00:29;101040.34;;;-0.86;100.00
42111;BME280;27766;52.174;5.456;2022-12-11T00:02:56;101045.66;;;-0.83;100.00
42111;BME280;27766;52.174;5.456;2022-12-11T00:05:23;101045.66;;;-0.83;100.00
42111;BME280;27766;52.174;5.456;2022-12-11T00:07:50;101036.03;;;-0.87;100.00
42111;BME280;27766;52.174;5.456;2022-12-11T00:10:17;101032.94;;;-0.83;100.00
42111;BME280;27766;52.174;5.456;2022-12-11T00:12:44;101031.41;;;-0.81;100.00
42111;BME280;27766;52.174;5.456;2022-12-11T00:15:11;101031.41;;;-0.81;100.00
42111;BME280;27766;52.174;5.456;2022-12-11T00:17:39;101023.56;;;-0.84;100.00
42111;BME280;27766;52.174;5.456;2022-12-11T00:20:07;101035.03;;;-0.77;100.00
42111;BME280;27766;52.174;5.456;2022-12-11T00:22:35;101033.81;;;-0.83;100.00
42111;BME280;27766;52.174;5.456;2022-12-11T00:25:02;101034.13;;;-0.78;100.00
42111;BME280;27766;52.174;5.456;2022-12-11T00:27:30;101023.56;;;-0.84;100.00
42111;BME280;27766;52.174;5.456;2022-12-11T00:29:57;101033.56;;;-0.74;100.00
42111;BME280;27766;52.174;5.456;2022-12-11T00:32:24;101025.03;;;-0.74;100.00
42111;BME280;27766;52.174;5.456;2022-12-11T00:34:54;101014.56;;;-0.79;100.00
42111;BME280;27766;52.174;5.456;2022-12-11T00:37:21;101030.13;;;-0.74;100.00
42111;BME280;27766;52.174;5.456;2022-12-11T00:39:48;101014.78;;;-0.76;100.00
42111;BME280;27766;52.174;5.456;2022-12-11T00:42:15;101028.34;;;-0.75;100.00
42111;BME280;27766;52.174;5.456;2022-12-11T00:44:42;101022.50;;;-0.74;100.00
42111;BME280;27766;52.174;5.456;2022-12-11T00:47:10;101029.56;;;-0.70;100.00
42111;BME280;27766;52.174;5.456;2022-12-11T00:49:37;101030.44;;;-0.70;100.00
42111;BME280;27766;52.174;5.456;2022-12-11T00:52:04;101010.88;;;-0.71;100.00
42111;BME280;27766;52.174;5.456;2022-12-11T00:54:33;101026.53;;;-0.65;100.00
42111;BME280;27766;52.174;5.456;2022-12-11T00:57:00;101013.63;;;-0.68;100.00
42111;BME280;27766;52.174;5.456;2022-12-11T00:59:28;101014.81;;;-0.62;100.00
42111;BME280;27766;52.174;5.456;2022-12-11T01:01:55;101012.09;;;-0.66;100.00
42111;BME280;27766;52.174;5.456;2022-12-11T01:04:22;101012.34;;;-0.61;100.00
42111;BME280;27766;52.174;5.456;2022-12-11T01:06:49;101007.00;;;-0.66;100.00
42111;BME280;27766;52.174;5.456;2022-12-11T01:09:16;101020.19;;;-0.58;100.00
42111;BME280;27766;52.174;5.456;2022-12-11T01:12:02;101015.03;;;-0.59;100.00
42111;BME280;27766;52.174;5.456;2022-12-11T01:14:30;101012.34;;;-0.61;100.00
42111;BME280;27766;52.174;5.456;2022-12-11T01:16:57;100998.56;;;-0.65;100.00
42111;BME280;27766;52.174;5.456;2022-12-11T01:19:25;100993.28;;;-0.68;100.00
42111;BME280;27766;52.174;5.456;2022-12-11T01:21:52;101008.16;;;-0.60;100.00
42111;BME280;27766;52.174;5.456;2022-12-11T01:24:19;101023.72;;;-0.56;100.00
42111;BME280;27766;52.174;5.456;2022-12-11T01:26:46;101017.88;;;-0.55;100.00
42111;BME280;27766;52.174;5.456;2022-12-11T01:29:13;101019.63;;;-0.54;100.00
42111;BME280;27766;52.174;5.456;2022-12-11T01:31:40;101023.91;;;-0.53;100.00
42111;BME280;27766;52.174;5.456;2022-12-11T01:34:07;101023.25;;;-0.50;100.00
42111;BME280;27766;52.174;5.456;2022-12-11T01:36:35;101024.03;;;-0.51;100.00
42111;BME280;27766;52.174;5.456;2022-12-11T01:39:02;101017.28;;;-0.51;100.00
42111;BME280;27766;52.174;5.456;2022-12-11T01:41:33;101002.31;;;-0.59;100.00
42111;BME280;27766;52.174;5.456;2022-12-11T01:45:00;101027.53;;;-0.49;100.00
42111;BME280;27766;52.174;5.456;2022-12-11T01:46:54;101025.00;;;-0.49;100.00
42111;BME280;27766;52.174;5.456;2022-12-11T01:49:24;101025.22;;;-0.46;100.00
42111;BME280;27766;52.174;5.456;2022-12-11T01:52:05;101025.22;;;-0.46;100.00
42111;BME280;27766;52.174;5.456;2022-12-11T01:54:34;101016.72;;;-0.46;100.00
42111;BME280;27766;52.174;5.456;2022-12-11T01:57:05;101025.22;;;-0.46;100.00
42111;BME280;27766;52.174;5.456;2022-12-11T01:59:39;101026.97;;;-0.45;100.00
42111;BME280;27766;52.174;5.456;2022-12-11T02:02:28;101022.75;;;-0.44;100.00
42111;BME280;27766;52.174;5.456;2022-12-11T02:04:56;101019.44;;;-0.43;100.00
42111;BME280;27766;52.174;5.456;2022-12-11T02:07:25;101000.47;;;-0.49;100.00
42111;BME280;27766;52.174;5.456;2022-12-11T02:09:52;101017.00;;;-0.42;100.00
42111;BME280;27766;52.174;5.456;2022-12-11T02:15:16;101006.03;;;-0.41;100.00
42111;BME280;27766;52.174;5.456;2022-12-11T02:20:35;101001.72;;;-0.42;100.00
42111;BME280;27766;52.174;5.456;2022-12-11T02:28:56;100986.38;;;-0.43;100.00
42111;BME280;27766;52.174;5.456;2022-12-11T02:31:33;100983.91;;;-0.42;100.00
42111;BME280;27766;52.174;5.456;2022-12-11T02:34:08;100985.81;;;-0.39;100.00
42111;BME280;27766;52.174;5.456;2022-12-11T02:36:41;100979.66;;;-0.43;100.00
42111;BME280;27766;52.174;5.456;2022-12-11T02:39:11;100991.00;;;-0.38;100.00
42111;BME280;27766;52.174;5.456;2022-12-11T02:41:43;100987.53;;;-0.38;100.00
42111;BME280;27766;52.174;5.456;2022-12-11T02:44:14;100974.94;;;-0.37;100.00
42111;BME280;27766;52.174;5.456;2022-12-11T02:46:43;100986.09;;;-0.35;100.00
42111;BME280;27766;52.174;5.456;2022-12-11T02:49:12;100982.66;;;-0.35;100.00
42111;BME280;27766;52.174;5.456;2022-12-11T02:51:40;100986.88;;;-0.36;100.00
42111;BME280;27766;52.174;5.456;2022-12-11T02:54:30;100972.28;;;-0.38;100.00
42111;BME280;27766;52.174;5.456;2022-12-11T02:57:02;100990.28;;;-0.35;100.00
42111;BME280;27766;52.174;5.456;2022-12-11T02:59:37;100993.91;;;-0.32;100.00
42111;BME280;27766;52.174;5.456;2022-12-11T03:02:06;100988.66;;;-0.35;100.00
42111;BME280;27766;52.174;5.456;2022-12-11T03:04:35;100987.75;;;-0.35;100.00
42111;BME280;27766;52.174;5.456;2022-12-11T03:07:07;100993.91;;;-0.32;100.00
42111;BME280;27766;52.174;5.456;2022-12-11T03:09:41;100989.72;;;-0.31;100.00
42111;BME280;27766;52.174;5.456;2022-12-11T03:12:11;100963.88;;;-0.37;100.00
42111;BME280;27766;52.174;5.456;2022-12-11T03:14:39;100980.22;;;-0.34;100.00
42111;BME280;27766;52.174;5.456;2022-12-11T03:17:32;100988.84;;;-0.32;100.00
42111;BME280;27766;52.174;5.456;2022-12-11T03:23:01;100992.38;;;-0.29;100.00
42111;BME280;27766;52.174;5.456;2022-12-11T03:25:40;100990.59;;;-0.30;100.00
42111;BME280;27766;52.174;5.456;2022-12-11T03:28:15;100984.63;;;-0.31;100.00
42111;BME280;27766;52.174;5.456;2022-12-11T03:30:48;100984.81;;;-0.28;100.00
42111;BME280;27766;52.174;5.456;2022-12-11T03:33:30;100989.22;;;-0.25;100.00
42111;BME280;27766;52.174;5.456;2022-12-11T03:36:03;100985.03;;;-0.25;100.00
42111;BME280;27766;52.174;5.456;2022-12-11T03:38:56;100977.28;;;-0.26;100.00
42111;BME280;27766;52.174;5.456;2022-12-11T03:41:25;100978.34;;;-0.23;100.00
42111;BME280;27766;52.174;5.456;2022-12-11T03:43:55;100981.72;;;-0.24;100.00
42111;BME280;27766;52.174;5.456;2022-12-11T03:46:29;100979.25;;;-0.22;100.00
42111;BME280;27766;52.174;5.456;2022-12-11T03:49:00;100989.59;;;-0.19;100.00
42111;BME280;27766;52.174;5.456;2022-12-11T03:51:29;100985.31;;;-0.20;100.00
42111;BME280;27766;52.174;5.456;2022-12-11T03:53:58;100978.66;;;-0.18;100.00
42111;BME280;27766;52.174;5.456;2022-12-11T03:56:27;100977.69;;;-0.20;100.00
42111;BME280;27766;52.174;5.456;2022-12-11T03:58:56;100976.03;;;-0.20;100.00
42111;BME280;27766;52.174;5.456;2022-12-11T04:01:23;100981.03;;;-0.21;100.00
42111;BME280;27766;52.174;5.456;2022-12-11T04:03:50;100975.94;;;-0.21;100.00
42111;BME280;27766;52.174;5.456;2022-12-11T04:06:18;100972.69;;;-0.19;100.00
42111;BME280;27766;52.174;5.456;2022-12-11T04:08:45;100967.59;;;-0.19;100.00
42111;BME280;27766;52.174;5.456;2022-12-11T04:11:12;100971.22;;;-0.15;100.00
42111;BME280;27766;52.174;5.456;2022-12-11T04:13:58;100967.69;;;-0.17;100.00
42111;BME280;27766;52.174;5.456;2022-12-11T04:16:58;100966.81;;;-0.18;100.00
42111;BME280;27766;52.174;5.456;2022-12-11T04:19:26;100969.66;;;-0.13;100.00
42111;BME280;27766;52.174;5.456;2022-12-11T04:22:22;100967.13;;;-0.13;100.00
42111;BME280;27766;52.174;5.456;2022-12-11T04:24:52;100964.56;;;-0.13;100.00
42111;BME280;27766;52.174;5.456;2022-12-11T04:27:20;100962.03;;;-0.13;100.00
42111;BME280;27766;52.174;5.456;2022-12-11T04:30:08;100960.19;;;-0.15;100.00
42111;BME280;27766;52.174;5.456;2022-12-11T04:32:36;100959.75;;;-0.22;100.00
42111;BME280;27766;52.174;5.456;2022-12-11T04:35:06;100952.34;;;-0.19;100.00
42111;BME280;27766;52.174;5.456;2022-12-11T04:37:36;100954.19;;;-0.16;100.00
42111;BME280;27766;52.174;5.456;2022-12-11T04:40:07;100961.81;;;-0.16;100.00
42111;BME280;27766;52.174;5.456;2022-12-11T04:42:34;100959.06;;;-0.19;100.00
42111;BME280;27766;52.174;5.456;2022-12-11T04:45:02;100952.25;;;-0.20;100.00
42111;BME280;27766;52.174;5.456;2022-12-11T04:47:29;100945.28;;;-0.23;100.00
42111;BME280;27766;52.174;5.456;2022-12-11T04:49:56;100942.84;;;-0.21;100.00
42111;BME280;27766;52.174;5.456;2022-12-11T04:52:23;100944.72;;;-0.19;100.00
42111;BME280;27766;52.174;5.456;2022-12-11T04:54:50;100947.34;;;-0.17;100.00
42111;BME280;27766;52.174;5.456;2022-12-11T04:57:17;100901.75;;;-0.41;100.00
42111;BME280;27766;52.174;5.456;2022-12-11T04:59:46;100949.88;;;-0.17;100.00
42111;BME280;27766;52.174;5.456;2022-12-11T05:02:14;100945.78;;;-0.15;100.00
42111;BME280;27766;52.174;5.456;2022-12-11T05:04:42;100948.03;;;-0.20;100.00
42111;BME280;27766;52.174;5.456;2022-12-11T05:07:09;100940.41;;;-0.20;100.00
42111;BME280;27766;52.174;5.456;2022-12-11T05:09:36;100943.63;;;-0.22;100.00
42111;BME280;27766;52.174;5.456;2022-12-11T05:12:07;100959.28;;;-0.16;100.00
42111;BME280;27766;52.174;5.456;2022-12-11T05:14:37;100953.31;;;-0.17;100.00
42111;BME280;27766;52.174;5.456;2022-12-11T05:17:04;100952.03;;;-0.23;100.00
42111;BME280;27766;52.174;5.456;2022-12-11T05:19:32;100951.06;;;-0.25;100.00
42111;BME280;27766;52.174;5.456;2022-12-11T05:21:59;100956.34;;;-0.22;100.00
42111;BME280;27766;52.174;5.456;2022-12-11T05:24:26;100954.88;;;-0.19;100.00
42111;BME280;27766;52.174;5.456;2022-12-11T05:26:53;100962.59;;;-0.17;100.00
42111;BME280;27766;52.174;5.456;2022-12-11T05:29:20;100947.16;;;-0.20;100.00
42111;BME280;27766;52.174;5.456;2022-12-11T05:31:47;100942.72;;;-0.23;100.00
42111;BME280;27766;52.174;5.456;2022-12-11T05:34:14;100946.19;;;-0.22;100.00
42111;BME280;27766;52.174;5.456;2022-12-11T05:36:42;100948.72;;;-0.22;100.00
42111;BME280;27766;52.174;5.456;2022-12-11T05:39:10;100949.72;;;-0.20;100.00
42111;BME280;27766;52.174;5.456;2022-12-11T05:41:37;100913.00;;;-0.37;100.00
42111;BME280;27766;52.174;5.456;2022-12-11T05:44:04;100934.16;;;-0.25;100.00
42111;BME280;27766;52.174;5.456;2022-12-11T05:46:31;100953.81;;;-0.22;100.00
42111;BME280;27766;52.174;5.456;2022-12-11T05:49:00;100944.41;;;-0.23;100.00
42111;BME280;27766;52.174;5.456;2022-12-11T05:51:28;100950.28;;;-0.24;100.00
42111;BME280;27766;52.174;5.456;2022-12-11T05:53:56;100948.50;;;-0.25;100.00
42111;BME280;27766;52.174;5.456;2022-12-11T05:56:26;100943.44;;;-0.25;100.00
42111;BME280;27766;52.174;5.456;2022-12-11T05:58:54;100953.59;;;-0.25;100.00
42111;BME280;27766;52.174;5.456;2022-12-11T06:01:36;100947.66;;;-0.26;100.00
42111;BME280;27766;52.174;5.456;2022-12-11T06:04:06;100944.22;;;-0.26;100.00
42111;BME280;27766;52.174;5.456;2022-12-11T06:06:34;100939.72;;;-0.30;100.00
42111;BME280;27766;52.174;5.456;2022-12-11T06:09:03;100939.13;;;-0.26;100.00
42111;BME280;27766;52.174;5.456;2022-12-11T06:11:32;100932.19;;;-0.29;100.00
42111;BME280;27766;52.174;5.456;2022-12-11T06:14:01;100932.19;;;-0.29;100.00
42111;BME280;27766;52.174;5.456;2022-12-11T06:16:29;100935.50;;;-0.30;100.00
42111;BME280;27766;52.174;5.456;2022-12-11T06:18:56;100933.84;;;-0.29;100.00
42111;BME280;27766;52.174;5.456;2022-12-11T06:21:27;100935.50;;;-0.30;100.00
42111;BME280;27766;52.174;5.456;2022-12-11T06:23:55;100936.41;;;-0.29;100.00
42111;BME280;27766;52.174;5.456;2022-12-11T06:26:23;100925.06;;;-0.35;100.00
42111;BME280;27766;52.174;5.456;2022-12-11T06:28:50;100936.19;;;-0.33;100.00
42111;BME280;27766;52.174;5.456;2022-12-11T06:31:18;100937.88;;;-0.33;100.00
42111;BME280;27766;52.174;5.456;2022-12-11T06:33:45;100945.41;;;-0.35;100.00
42111;BME280;27766;52.174;5.456;2022-12-11T06:36:18;100948.03;;;-0.33;100.00
42111;BME280;27766;52.174;5.456;2022-12-11T06:38:45;100942.97;;;-0.33;100.00
42111;BME280;27766;52.174;5.456;2022-12-11T06:41:14;100925.41;;;-0.42;100.00
42111;BME280;27766;52.174;5.456;2022-12-11T06:43:41;100937.09;;;-0.32;100.00
42111;BME280;27766;52.174;5.456;2022-12-11T06:46:14;100939.72;;;-0.30;100.00
42111;BME280;27766;52.174;5.456;2022-12-11T06:48:42;100944.81;;;-0.30;100.00
42111;BME280;27766;52.174;5.456;2022-12-11T06:51:13;100939.50;;;-0.34;100.00
42111;BME280;27766;52.174;5.456;2022-12-11T06:53:40;100948.13;;;-0.32;100.00
42111;BME280;27766;52.174;5.456;2022-12-11T06:56:10;100944.50;;;-0.35;100.00
42111;BME280;27766;52.174;5.456;2022-12-11T06:58:39;100898.63;;;-0.64;100.00
42111;BME280;27766;52.174;5.456;2022-12-11T07:01:21;100951.28;;;-0.36;100.00
42111;BME280;27766;52.174;5.456;2022-12-11T07:03:52;100953.13;;;-0.33;100.00
42111;BME280;27766;52.174;5.456;2022-12-11T07:06:19;100953.22;;;-0.32;100.00
42111;BME280;27766;52.174;5.456;2022-12-11T07:08:46;100945.28;;;-0.36;100.00
42111;BME280;27766;52.174;5.456;2022-12-11T07:11:14;100956.53;;;-0.33;100.00
42111;BME280;27766;52.174;5.456;2022-12-11T07:13:42;100959.22;;;-0.31;100.00
42111;BME280;27766;52.174;5.456;2022-12-11T07:16:11;100958.41;;;-0.30;100.00
42111;BME280;27766;52.174;5.456;2022-12-11T07:18:40;100966.03;;;-0.30;100.00
42111;BME280;27766;52.174;5.456;2022-12-11T07:21:09;100965.94;;;-0.32;100.00
42111;BME280;27766;52.174;5.456;2022-12-11T07:23:38;100962.22;;;-0.37;100.00
42111;BME280;27766;52.174;5.456;2022-12-11T07:26:10;100965.16;;;-0.30;100.00
42111;BME280;27766;52.174;5.456;2022-12-11T07:28:38;100965.16;;;-0.30;100.00
42111;BME280;27766;52.174;5.456;2022-12-11T07:31:11;100958.31;;;-0.32;100.00
42111;BME280;27766;52.174;5.456;2022-12-11T07:33:40;100965.84;;;-0.33;100.00
42111;BME280;27766;52.174;5.456;2022-12-11T07:36:09;100971.63;;;-0.36;100.00
42111;BME280;27766;52.174;5.456;2022-12-11T07:38:37;100969.94;;;-0.35;100.00
42111;BME280;27766;52.174;5.456;2022-12-11T07:41:07;100968.41;;;-0.33;100.00
42111;BME280;27766;52.174;5.456;2022-12-11T07:43:35;100971.81;;;-0.33;100.00
42111;BME280;27766;52.174;5.456;2022-12-11T07:46:13;100974.34;;;-0.33;100.00
42111;BME280;27766;52.174;5.456;2022-12-11T07:48:43;100979.44;;;-0.33;100.00
42111;BME280;27766;52.174;5.456;2022-12-11T07:51:30;100980.41;;;-0.30;100.00
42111;BME280;27766;52.174;5.456;2022-12-11T07:53:59;100980.22;;;-0.34;100.00
42111;BME280;27766;52.174;5.456;2022-12-11T07:56:28;100983.75;;;-0.32;100.00
42111;BME280;27766;52.174;5.456;2022-12-11T07:58:58;100983.75;;;-0.32;100.00
42111;BME280;27766;52.174;5.456;2022-12-11T08:01:30;100969.66;;;-0.40;100.00
42111;BME280;27766;52.174;5.456;2022-12-11T08:03:58;100975.25;;;-0.32;100.00
42111;BME280;27766;52.174;5.456;2022-12-11T08:06:28;100977.66;;;-0.34;100.00
42111;BME280;27766;52.174;5.456;2022-12-11T08:08:57;100987.75;;;-0.35;100.00
42111;BME280;27766;52.174;5.456;2022-12-11T08:11:24;100983.66;;;-0.33;100.00
42111;BME280;27766;52.174;5.456;2022-12-11T08:13:52;100989.31;;;-0.37;100.00
42111;BME280;27766;52.174;5.456;2022-12-11T08:16:19;100986.09;;;-0.35;100.00
42111;BME280;27766;52.174;5.456;2022-12-11T08:18:47;100984.44;;;-0.34;100.00
42111;BME280;27766;52.174;5.456;2022-12-11T08:21:16;100972.19;;;-0.40;100.00
42111;BME280;27766;52.174;5.456;2022-12-11T08:23:44;100991.19;;;-0.35;100.00
42111;BME280;27766;52.174;5.456;2022-12-11T08:26:14;100992.16;;;-0.33;100.00
42111;BME280;27766;52.174;5.456;2022-12-11T08:28:41;100981.59;;;-0.39;100.00
42111;BME280;27766;52.174;5.456;2022-12-11T08:31:09;100981.59;;;-0.39;100.00
42111;BME280;27766;52.174;5.456;2022-12-11T08:33:38;100988.22;;;-0.41;100.00
42111;BME280;27766;52.174;5.456;2022-12-11T08:36:07;100988.66;;;-0.35;100.00
42111;BME280;27766;52.174;5.456;2022-12-11T08:38:35;100992.84;;;-0.35;100.00
42111;BME280;27766;52.174;5.456;2022-12-11T08:41:17;100986.88;;;-0.36;100.00
42111;BME280;27766;52.174;5.456;2022-12-11T08:43:45;100984.44;;;-0.34;100.00
42111;BME280;27766;52.174;5.456;2022-12-11T08:46:13;100986.75;;;-0.37;100.00
42111;BME280;27766;52.174;5.456;2022-12-11T08:48:41;100989.44;;;-0.36;100.00
42111;BME280;27766;52.174;5.456;2022-12-11T08:51:14;100990.38;;;-0.34;100.00
42111;BME280;27766;52.174;5.456;2022-12-11T08:53:42;100989.53;;;-0.34;100.00
42111;BME280;27766;52.174;5.456;2022-12-11T08:56:12;100988.66;;;-0.35;100.00
42111;BME280;27766;52.174;5.456;2022-12-11T08:58:40;100985.91;;;-0.38;100.00
42111;BME280;27766;52.174;5.456;2022-12-11T09:01:10;100984.03;;;-0.40;100.00
42111;BME280;27766;52.174;5.456;2022-12-11T09:03:39;100972.78;;;-0.44;100.00
42111;BME280;27766;52.174;5.456;2022-12-11T09:06:09;100984.72;;;-0.43;100.00
42111;BME280;27766;52.174;5.456;2022-12-11T09:08:36;100982.28;;;-0.41;100.00
42111;BME280;27766;52.174;5.456;2022-12-11T09:11:09;100984.72;;;-0.43;100.00
42111;BME280;27766;52.174;5.456;2022-12-11T09:13:37;100976.97;;;-0.44;100.00
42111;BME280;27766;52.174;5.456;2022-12-11T09:16:07;100985.59;;;-0.42;100.00
42111;BME280;27766;52.174;5.456;2022-12-11T09:18:36;100984.53;;;-0.46;100.00
42111;BME280;27766;52.174;5.456;2022-12-11T09:21:11;100965.53;;;-0.51;100.00
42111;BME280;27766;52.174;5.456;2022-12-11T09:23:43;100975.81;;;-0.50;100.00
42111;BME280;27766;52.174;5.456;2022-12-11T09:26:13;100974.94;;;-0.50;100.00
42111;BME280;27766;52.174;5.456;2022-12-11T09:28:41;100969.84;;;-0.50;100.00
42111;BME280;27766;52.174;5.456;2022-12-11T09:31:15;100972.50;;;-0.49;100.00
42111;BME280;27766;52.174;5.456;2022-12-11T09:33:43;100969.47;;;-0.43;100.00
42111;BME280;27766;52.174;5.456;2022-12-11T09:36:11;100971.72;;;-0.34;100.00
42111;BME280;27766;52.174;5.456;2022-12-11T09:38:39;100968.47;;;-0.32;100.00
42111;BME280;27766;52.174;5.456;2022-12-11T09:41:38;100946.75;;;-0.40;100.00
42111;BME280;27766;52.174;5.456;2022-12-11T09:44:18;100960.66;;;-0.21;100.00
42111;BME280;27766;52.174;5.456;2022-12-11T09:46:46;100957.50;;;-0.17;100.00
42111;BME280;27766;52.174;5.456;2022-12-11T09:54:46;100962.00;;;0.01;100.00
42111;BME280;27766;52.174;5.456;2022-12-11T10:00:17;100962.22;;;0.04;100.00
42111;BME280;27766;52.174;5.456;2022-12-11T10:10:53;100963.06;;;0.18;100.00
42111;BME280;27766;52.174;5.456;2022-12-11T10:16:26;100964.63;;;0.15;100.00
42111;BME280;27766;52.174;5.456;2022-12-11T10:18:58;100959.44;;;0.14;100.00
42111;BME280;27766;52.174;5.456;2022-12-11T10:21:26;100948.97;;;0.09;100.00
42111;BME280;27766;52.174;5.456;2022-12-11T10:24:01;100964.81;;;0.19;100.00
42111;BME280;27766;52.174;5.456;2022-12-11T10:26:30;100951.03;;;0.15;100.00
42111;BME280;27766;52.174;5.456;2022-12-11T10:28:59;100963.53;;;0.25;100.00
42111;BME280;27766;52.174;5.456;2022-12-11T10:31:34;100952.28;;;0.22;100.00
42111;BME280;27766;52.174;5.456;2022-12-11T10:34:38;100952.56;;;0.26;100.00
42111;BME280;27766;52.174;5.456;2022-12-11T10:37:05;100950.91;;;0.27;100.00
42111;BME280;27766;52.174;5.456;2022-12-11T10:39:32;100951.88;;;0.29;100.00
42111;BME280;27766;52.174;5.456;2022-12-11T10:42:12;100951.97;;;0.30;100.00
42111;BME280;27766;52.174;5.456;2022-12-11T10:44:54;100949.69;;;0.35;100.00
42111;BME280;27766;52.174;5.456;2022-12-11T10:47:22;100948.81;;;0.35;100.00
42111;BME280;27766;52.174;5.456;2022-12-11T10:49:57;100951.47;;;0.36;100.00
42111;BME280;27766;52.174;5.456;2022-12-11T10:52:28;100950.56;;;0.36;100.00
42111;BME280;27766;52.174;5.456;2022-12-11T10:55:00;100956.44;;;0.35;100.00
42111;BME280;27766;52.174;5.456;2022-12-11T10:57:33;100945.47;;;0.36;100.00
42111;BME280;27766;52.174;5.456;2022-12-11T11:00:04;100943.03;;;0.37;100.00
42111;BME280;27766;52.174;5.456;2022-12-11T11:02:40;100935.50;;;0.39;100.00
42111;BME280;27766;52.174;5.456;2022-12-11T11:05:27;100936.28;;;0.38;100.00
42111;BME280;27766;52.174;5.456;2022-12-11T11:08:14;100946.53;;;0.39;100.00
42111;BME280;27766;52.174;5.456;2022-12-11T11:10:55;100938.81;;;0.38;100.00
42111;BME280;27766;52.174;5.456;2022-12-11T11:13:26;100934.78;;;0.41;100.00
42111;BME280;27766;52.174;5.456;2022-12-11T11:16:07;100928.28;;;0.46;100.00
42111;BME280;27766;52.174;5.456;2022-12-11T11:18:39;100935.28;;;0.49;100.00
42111;BME280;27766;52.174;5.456;2022-12-11T11:21:18;100923.31;;;0.48;100.00
42111;BME280;27766;52.174;5.456;2022-12-11T11:23:45;100921.72;;;0.50;100.00
42111;BME280;27766;52.174;5.456;2022-12-11T11:26:20;100923.69;;;0.54;100.00
42111;BME280;27766;52.174;5.456;2022-12-11T11:28:54;100918.78;;;0.57;100.00
42111;BME280;27766;52.174;5.456;2022-12-11T11:31:31;100920.72;;;0.61;100.00
42111;BME280;27766;52.174;5.456;2022-12-11T11:34:07;100909.72;;;0.62;100.00
42111;BME280;27766;52.174;5.456;2022-12-11T11:36:36;100916.41;;;0.60;100.00
42111;BME280;27766;52.174;5.456;2022-12-11T11:39:22;100911.50;;;0.63;100.00
42111;BME280;27766;52.174;5.456;2022-12-11T11:42:03;100914.13;;;0.65;100.00
42111;BME280;27766;52.174;5.456;2022-12-11T11:44:38;100908.06;;;0.63;100.00
42111;BME280;27766;52.174;5.456;2022-12-11T11:47:17;100918.16;;;0.61;100.00
42111;BME280;27766;52.174;5.456;2022-12-11T11:50:00;100911.66;;;0.67;100.00
42111;BME280;27766;52.174;5.456;2022-12-11T11:52:56;100902.72;;;0.73;100.00
42111;BME280;27766;52.174;5.456;2022-12-11T11:55:37;100909.06;;;0.80;100.00
42111;BME280;27766;52.174;5.456;2022-12-11T12:00:35;100907.47;;;0.82;100.00
42111;BME280;27766;52.174;5.456;2022-12-11T12:03:23;100904.13;;;0.83;100.00
42111;BME280;27766;52.174;5.456;2022-12-11T12:14:30;100895.44;;;0.79;100.00
42111;BME280;27766;52.174;5.456;2022-12-11T12:17:36;100893.78;;;0.80;100.00
42111;BME280;27766;52.174;5.456;2022-12-11T12:26:05;100894.66;;;0.81;100.00
42111;BME280;27766;52.174;5.456;2022-12-11T12:39:50;100886.75;;;0.91;100.00
42111;BME280;27766;52.174;5.456;2022-12-11T12:42:31;100890.00;;;1.03;100.00
42111;BME280;27766;52.174;5.456;2022-12-11T12:47:42;100886.75;;;1.06;100.00
42111;BME280;27766;52.174;5.456;2022-12-11T12:50:18;100882.28;;;1.02;100.00
42111;BME280;27766;52.174;5.456;2022-12-11T12:52:46;100881.03;;;0.95;100.00
42111;BME280;27766;52.174;5.456;2022-12-11T12:57:51;100882.16;;;1.00;100.00
42111;BME280;27766;52.174;5.456;2022-12-11T13:00:26;100883.56;;;0.95;100.00
42111;BME280;27766;52.174;5.456;2022-12-11T13:02:54;100888.31;;;0.89;100.00
42111;BME280;27766;52.174;5.456;2022-12-11T13:05:42;100887.69;;;0.93;100.00
42111;BME280;27766;52.174;5.456;2022-12-11T13:08:11;100886.59;;;1.03;100.00
42111;BME280;27766;52.174;5.456;2022-12-11T13:10:41;100885.34;;;0.96;100.00
42111;BME280;27766;52.174;5.456;2022-12-11T13:13:31;100891.50;;;1.00;100.00
42111;BME280;27766;52.174;5.456;2022-12-11T13:16:06;100894.03;;;1.00;100.00
42111;BME280;27766;52.174;5.456;2022-12-11T13:18:37;100886.31;;;0.98;100.00
42111;BME280;27766;52.174;5.456;2022-12-11T13:23:51;100893.06;;;0.98;100.00
42111;BME280;27766;52.174;5.456;2022-12-11T13:26:30;100887.09;;;0.97;100.00
42111;BME280;27766;52.174;5.456;2022-12-11T13:28:57;100898.94;;;0.97;100.00
42111;BME280;27766;52.174;5.456;2022-12-11T13:31:35;100894.03;;;1.00;100.00
42111;BME280;27766;52.174;5.456;2022-12-11T13:34:17;100900.38;;;0.91;100.00
42111;BME280;27766;52.174;5.456;2022-12-11T13:36:50;100901.00;;;0.87;100.00
42111;BME280;27766;52.174;5.456;2022-12-11T13:39:22;100899.22;;;0.86;100.00
42111;BME280;27766;52.174;5.456;2022-12-11T13:41:56;100894.84;;;0.84;100.00
42111;BME280;27766;52.174;5.456;2022-12-11T13:44:39;100900.81;;;0.84;100.00
42111;BME280;27766;52.174;5.456;2022-12-11T13:47:12;100894.66;;;0.81;100.00
42111;BME280;27766;52.174;5.456;2022-12-11T13:49:42;100892.44;;;0.87;100.00
42111;BME280;27766;52.174;5.456;2022-12-11T13:52:21;100887.34;;;0.87;100.00
42111;BME280;27766;52.174;5.456;2022-12-11T13:54:51;100893.22;;;0.86;100.00
42111;BME280;27766;52.174;5.456;2022-12-11T13:57:26;100895.19;;;0.90;100.00
42111;BME280;27766;52.174;5.456;2022-12-11T13:59:56;100902.72;;;0.88;100.00
42111;BME280;27766;52.174;5.456;2022-12-11T14:02:38;100900.81;;;0.84;100.00
42111;BME280;27766;52.174;5.456;2022-12-11T14:05:10;100904.22;;;0.85;100.00
42111;BME280;27766;52.174;5.456;2022-12-11T14:07:58;100905.81;;;0.83;100.00
42111;BME280;27766;52.174;5.456;2022-12-11T14:10:31;100906.59;;;0.82;100.00
42111;BME280;27766;52.174;5.456;2022-12-11T14:15:26;100913.28;;;0.79;100.00
42111;BME280;27766;52.174;5.456;2022-12-11T14:17:55;100905.19;;;0.72;100.00